KACB

Antrim County Airport

Bellaire, Michigan, USA
METAR KACB 170215Z AUTO 05005KT 10SM OVC070 M09/M11 A3021 RMK AO2 T10901110
Observed Flight Rules
Dec-17 @ 02:15 UTC (5 minutes ago) Visual Flight Rules
Wind Visibility Clouds
50° at 5 knots 10 miles
  • Overcast at 7,000' AGL
Temperatures Readings
Current -9°C / 16°F
Dewpoint -11°C / 12°F
Humidity 86%
Altimeter 30.21" Hg
Pressure 1023 hPa
Elevation 190
METAR KACB 170215Z AUTO 05005KT 10SM OVC070 M09/M11 A3021 RMK AO2 T10901110
Observed Flight Rules
Dec-17 @ 02:15 UTC
(5 minutes ago)
VFR
Wind Visibility
50° at 5 knots 10 miles
Clouds
  • Overcast at 7,000' AGL
Temperature Dewpoint
-9°C / 16°F -11°C / 12°F
Humidity Altimeter Pressure
86% 30.21" Hg 1023 hPa